Terminal Aerodrome Forecast
Issued by NWS Albuquerque, NM

Home | Current Version | Previous Version | Text Only | Print | Product List | Glossary On
Versions: 1 2 3 4 5 6 7 8 9 10 11 12 13 14 15 16 17 18 19 20 21 22 23 24 25 26 27 28 29 30 31 32
000
FTUS45 KABQ 211750 CCA
TAFABQ
TAF COR
KABQ 211750Z 2118/2218 10015G26KT P6SM VCSH BKN050
     FM220000 14011KT P6SM VCTS SCT030CB BKN050
      TEMPO 2200/2203 VRB15G25KT -SHRA BKN030
     FM220300 13011KT P6SM VCSH SCT030 BKN050
     FM221100 36006KT P6SM SCT050 BKN090
     FM221500 28009KT P6SM SCT050 BKN090=

USA.gov is the U.S. government's official web portal to all federal, state and local government web resources and services.